sensor_id;sensor_type;location;lat;lon;timestamp;P1;durP1;ratioP1;P2;durP2;ratioP2
15096;SDS011;7649;52.084;7.478;2022-10-15T00:02:14;28.53;;;23.23;;
15096;SDS011;7649;52.084;7.478;2022-10-15T00:04:42;25.90;;;21.33;;
15096;SDS011;7649;52.084;7.478;2022-10-15T00:07:11;24.83;;;21.67;;
15096;SDS011;7649;52.084;7.478;2022-10-15T00:09:40;26.83;;;21.97;;
15096;SDS011;7649;52.084;7.478;2022-10-15T00:12:08;26.70;;;21.90;;
15096;SDS011;7649;52.084;7.478;2022-10-15T00:14:37;25.10;;;21.70;;
15096;SDS011;7649;52.084;7.478;2022-10-15T00:17:05;26.37;;;22.83;;
15096;SDS011;7649;52.084;7.478;2022-10-15T00:19:33;24.57;;;21.20;;
15096;SDS011;7649;52.084;7.478;2022-10-15T00:22:01;26.37;;;20.63;;
15096;SDS011;7649;52.084;7.478;2022-10-15T00:24:30;25.30;;;20.03;;
15096;SDS011;7649;52.084;7.478;2022-10-15T00:26:59;21.70;;;17.93;;
15096;SDS011;7649;52.084;7.478;2022-10-15T00:29:27;19.73;;;17.63;;
15096;SDS011;7649;52.084;7.478;2022-10-15T00:31:56;21.53;;;18.70;;
15096;SDS011;7649;52.084;7.478;2022-10-15T00:34:24;23.43;;;19.13;;
15096;SDS011;7649;52.084;7.478;2022-10-15T00:36:52;22.70;;;18.40;;
15096;SDS011;7649;52.084;7.478;2022-10-15T00:39:21;21.27;;;18.97;;
15096;SDS011;7649;52.084;7.478;2022-10-15T00:41:49;21.57;;;18.67;;
15096;SDS011;7649;52.084;7.478;2022-10-15T00:47:08;29.60;;;22.57;;
15096;SDS011;7649;52.084;7.478;2022-10-15T00:49:41;26.93;;;22.03;;
15096;SDS011;7649;52.084;7.478;2022-10-15T00:52:10;26.63;;;20.70;;
15096;SDS011;7649;52.084;7.478;2022-10-15T00:54:39;22.10;;;18.70;;
15096;SDS011;7649;52.084;7.478;2022-10-15T00:57:09;20.80;;;18.60;;
15096;SDS011;7649;52.084;7.478;2022-10-15T00:59:39;21.47;;;19.03;;
15096;SDS011;7649;52.084;7.478;2022-10-15T01:02:10;24.73;;;21.00;;
15096;SDS011;7649;52.084;7.478;2022-10-15T01:04:39;24.30;;;20.57;;
15096;SDS011;7649;52.084;7.478;2022-10-15T01:07:08;24.03;;;18.87;;
15096;SDS011;7649;52.084;7.478;2022-10-15T01:09:36;22.87;;;19.03;;
15096;SDS011;7649;52.084;7.478;2022-10-15T01:12:04;22.10;;;19.33;;
15096;SDS011;7649;52.084;7.478;2022-10-15T01:14:36;26.63;;;22.60;;
15096;SDS011;7649;52.084;7.478;2022-10-15T01:17:07;26.57;;;21.20;;
15096;SDS011;7649;52.084;7.478;2022-10-15T01:19:47;35.30;;;25.63;;
15096;SDS011;7649;52.084;7.478;2022-10-15T01:22:19;28.97;;;22.47;;
15096;SDS011;7649;52.084;7.478;2022-10-15T01:24:52;29.77;;;22.93;;
15096;SDS011;7649;52.084;7.478;2022-10-15T01:27:35;27.60;;;22.30;;
15096;SDS011;7649;52.084;7.478;2022-10-15T01:35:49;31.50;;;24.30;;
15096;SDS011;7649;52.084;7.478;2022-10-15T01:38:23;28.53;;;22.53;;
15096;SDS011;7649;52.084;7.478;2022-10-15T01:40:53;27.00;;;21.97;;
15096;SDS011;7649;52.084;7.478;2022-10-15T01:43:23;27.90;;;22.57;;
15096;SDS011;7649;52.084;7.478;2022-10-15T01:45:54;29.33;;;21.80;;
15096;SDS011;7649;52.084;7.478;2022-10-15T01:48:24;28.53;;;22.50;;
15096;SDS011;7649;52.084;7.478;2022-10-15T01:50:56;26.77;;;20.73;;
15096;SDS011;7649;52.084;7.478;2022-10-15T01:53:25;23.30;;;19.57;;
15096;SDS011;7649;52.084;7.478;2022-10-15T01:55:54;24.93;;;20.80;;
15096;SDS011;7649;52.084;7.478;2022-10-15T01:58:23;26.63;;;21.43;;
15096;SDS011;7649;52.084;7.478;2022-10-15T02:00:52;24.77;;;20.20;;
15096;SDS011;7649;52.084;7.478;2022-10-15T02:03:21;27.73;;;21.40;;
15096;SDS011;7649;52.084;7.478;2022-10-15T02:05:49;31.50;;;22.97;;
15096;SDS011;7649;52.084;7.478;2022-10-15T02:08:22;30.67;;;23.67;;
15096;SDS011;7649;52.084;7.478;2022-10-15T02:10:52;31.17;;;23.50;;
15096;SDS011;7649;52.084;7.478;2022-10-15T02:13:23;35.43;;;25.63;;
15096;SDS011;7649;52.084;7.478;2022-10-15T02:15:53;40.87;;;27.13;;
15096;SDS011;7649;52.084;7.478;2022-10-15T02:18:27;40.83;;;26.03;;
15096;SDS011;7649;52.084;7.478;2022-10-15T02:20:56;36.97;;;25.57;;
15096;SDS011;7649;52.084;7.478;2022-10-15T02:23:27;40.83;;;27.63;;
15096;SDS011;7649;52.084;7.478;2022-10-15T02:25:58;43.57;;;27.90;;
15096;SDS011;7649;52.084;7.478;2022-10-15T02:28:27;41.63;;;29.07;;
15096;SDS011;7649;52.084;7.478;2022-10-15T02:30:56;56.67;;;27.83;;
15096;SDS011;7649;52.084;7.478;2022-10-15T02:33:24;94.47;;;29.13;;
15096;SDS011;7649;52.084;7.478;2022-10-15T02:35:54;60.73;;;28.23;;
15096;SDS011;7649;52.084;7.478;2022-10-15T02:38:23;154.30;;;30.50;;
15096;SDS011;7649;52.084;7.478;2022-10-15T02:40:53;68.40;;;26.90;;
15096;SDS011;7649;52.084;7.478;2022-10-15T02:43:21;79.43;;;27.80;;
15096;SDS011;7649;52.084;7.478;2022-10-15T02:45:50;74.47;;;27.93;;
15096;SDS011;7649;52.084;7.478;2022-10-15T02:48:18;63.33;;;26.03;;
15096;SDS011;7649;52.084;7.478;2022-10-15T02:50:46;74.23;;;28.33;;
15096;SDS011;7649;52.084;7.478;2022-10-15T02:53:14;73.10;;;27.47;;
15096;SDS011;7649;52.084;7.478;2022-10-15T02:55:42;94.57;;;27.93;;
15096;SDS011;7649;52.084;7.478;2022-10-15T02:58:13;51.40;;;26.77;;
15096;SDS011;7649;52.084;7.478;2022-10-15T03:00:41;54.00;;;27.57;;
15096;SDS011;7649;52.084;7.478;2022-10-15T03:03:10;76.23;;;28.33;;
15096;SDS011;7649;52.084;7.478;2022-10-15T03:05:38;111.60;;;30.33;;
15096;SDS011;7649;52.084;7.478;2022-10-15T03:08:06;78.03;;;29.63;;
15096;SDS011;7649;52.084;7.478;2022-10-15T03:10:34;80.90;;;29.67;;
15096;SDS011;7649;52.084;7.478;2022-10-15T03:13:03;49.00;;;27.00;;
15096;SDS011;7649;52.084;7.478;2022-10-15T03:15:32;118.50;;;30.60;;
15096;SDS011;7649;52.084;7.478;2022-10-15T03:18:01;96.40;;;30.20;;
15096;SDS011;7649;52.084;7.478;2022-10-15T03:20:29;47.30;;;29.10;;
15096;SDS011;7649;52.084;7.478;2022-10-15T03:22:57;92.33;;;30.87;;
15096;SDS011;7649;52.084;7.478;2022-10-15T03:25:25;52.90;;;30.47;;
15096;SDS011;7649;52.084;7.478;2022-10-15T03:27:53;54.53;;;29.33;;
15096;SDS011;7649;52.084;7.478;2022-10-15T03:30:22;61.57;;;30.43;;
15096;SDS011;7649;52.084;7.478;2022-10-15T03:32:51;61.27;;;30.97;;
15096;SDS011;7649;52.084;7.478;2022-10-15T03:35:19;56.50;;;29.70;;
15096;SDS011;7649;52.084;7.478;2022-10-15T03:37:48;81.67;;;32.23;;
15096;SDS011;7649;52.084;7.478;2022-10-15T03:40:16;53.63;;;30.60;;
15096;SDS011;7649;52.084;7.478;2022-10-15T03:42:48;55.13;;;30.70;;
15096;SDS011;7649;52.084;7.478;2022-10-15T03:45:17;46.57;;;29.70;;
15096;SDS011;7649;52.084;7.478;2022-10-15T03:47:45;48.27;;;30.30;;
15096;SDS011;7649;52.084;7.478;2022-10-15T03:50:15;51.20;;;31.90;;
15096;SDS011;7649;52.084;7.478;2022-10-15T03:52:43;40.40;;;27.37;;
15096;SDS011;7649;52.084;7.478;2022-10-15T03:55:11;44.57;;;27.17;;
15096;SDS011;7649;52.084;7.478;2022-10-15T03:57:39;45.07;;;27.37;;
15096;SDS011;7649;52.084;7.478;2022-10-15T04:00:08;38.90;;;27.60;;
15096;SDS011;7649;52.084;7.478;2022-10-15T04:02:36;49.57;;;26.57;;
15096;SDS011;7649;52.084;7.478;2022-10-15T04:05:05;55.37;;;28.83;;
15096;SDS011;7649;52.084;7.478;2022-10-15T04:07:34;57.10;;;26.17;;
15096;SDS011;7649;52.084;7.478;2022-10-15T04:10:03;37.37;;;25.63;;
15096;SDS011;7649;52.084;7.478;2022-10-15T04:12:31;42.30;;;25.87;;
15096;SDS011;7649;52.084;7.478;2022-10-15T04:14:59;39.40;;;27.23;;
15096;SDS011;7649;52.084;7.478;2022-10-15T04:17:27;33.73;;;26.00;;
15096;SDS011;7649;52.084;7.478;2022-10-15T04:19:55;90.23;;;28.90;;
15096;SDS011;7649;52.084;7.478;2022-10-15T04:22:24;86.37;;;27.20;;
15096;SDS011;7649;52.084;7.478;2022-10-15T04:24:53;38.43;;;27.30;;
15096;SDS011;7649;52.084;7.478;2022-10-15T04:27:22;46.03;;;27.53;;
15096;SDS011;7649;52.084;7.478;2022-10-15T04:29:50;39.47;;;27.03;;
15096;SDS011;7649;52.084;7.478;2022-10-15T04:32:18;42.63;;;27.63;;
15096;SDS011;7649;52.084;7.478;2022-10-15T04:34:47;38.93;;;26.37;;
15096;SDS011;7649;52.084;7.478;2022-10-15T04:37:16;45.90;;;26.17;;
15096;SDS011;7649;52.084;7.478;2022-10-15T04:39:44;59.03;;;27.97;;
15096;SDS011;7649;52.084;7.478;2022-10-15T04:42:13;44.03;;;25.67;;
15096;SDS011;7649;52.084;7.478;2022-10-15T04:44:42;58.57;;;27.37;;
15096;SDS011;7649;52.084;7.478;2022-10-15T04:47:10;110.33;;;28.97;;
15096;SDS011;7649;52.084;7.478;2022-10-15T04:49:38;40.33;;;26.50;;
15096;SDS011;7649;52.084;7.478;2022-10-15T04:52:06;47.70;;;27.53;;
15096;SDS011;7649;52.084;7.478;2022-10-15T04:54:35;61.53;;;27.23;;
15096;SDS011;7649;52.084;7.478;2022-10-15T04:57:03;46.60;;;27.30;;
15096;SDS011;7649;52.084;7.478;2022-10-15T04:59:33;51.17;;;28.20;;
15096;SDS011;7649;52.084;7.478;2022-10-15T05:02:01;56.53;;;29.97;;
15096;SDS011;7649;52.084;7.478;2022-10-15T05:04:30;48.73;;;30.80;;
15096;SDS011;7649;52.084;7.478;2022-10-15T05:06:58;59.57;;;29.97;;
15096;SDS011;7649;52.084;7.478;2022-10-15T05:09:26;44.43;;;29.57;;
15096;SDS011;7649;52.084;7.478;2022-10-15T05:11:54;56.20;;;31.57;;
15096;SDS011;7649;52.084;7.478;2022-10-15T05:14:22;47.17;;;29.63;;
15096;SDS011;7649;52.084;7.478;2022-10-15T05:16:52;45.90;;;29.90;;
15096;SDS011;7649;52.084;7.478;2022-10-15T05:19:20;46.27;;;30.37;;
15096;SDS011;7649;52.084;7.478;2022-10-15T05:21:48;46.50;;;28.67;;
15096;SDS011;7649;52.084;7.478;2022-10-15T05:24:17;44.83;;;29.27;;
15096;SDS011;7649;52.084;7.478;2022-10-15T05:26:45;46.67;;;29.27;;
15096;SDS011;7649;52.084;7.478;2022-10-15T05:29:13;45.43;;;29.17;;
15096;SDS011;7649;52.084;7.478;2022-10-15T05:31:41;44.43;;;28.47;;
15096;SDS011;7649;52.084;7.478;2022-10-15T05:34:11;41.80;;;28.10;;
15096;SDS011;7649;52.084;7.478;2022-10-15T05:36:39;47.23;;;28.53;;
15096;SDS011;7649;52.084;7.478;2022-10-15T05:39:07;46.03;;;29.20;;
15096;SDS011;7649;52.084;7.478;2022-10-15T05:41:37;44.73;;;27.87;;
15096;SDS011;7649;52.084;7.478;2022-10-15T05:44:05;50.10;;;29.83;;
15096;SDS011;7649;52.084;7.478;2022-10-15T05:46:33;48.33;;;29.57;;
15096;SDS011;7649;52.084;7.478;2022-10-15T05:49:02;53.30;;;29.67;;
15096;SDS011;7649;52.084;7.478;2022-10-15T05:51:31;46.97;;;28.20;;
15096;SDS011;7649;52.084;7.478;2022-10-15T05:53:59;46.50;;;29.23;;
15096;SDS011;7649;52.084;7.478;2022-10-15T05:56:27;47.67;;;29.07;;
15096;SDS011;7649;52.084;7.478;2022-10-15T05:58:56;47.10;;;29.00;;
15096;SDS011;7649;52.084;7.478;2022-10-15T06:01:24;47.67;;;29.73;;
15096;SDS011;7649;52.084;7.478;2022-10-15T06:03:52;45.73;;;28.37;;
15096;SDS011;7649;52.084;7.478;2022-10-15T06:06:21;42.20;;;28.30;;
15096;SDS011;7649;52.084;7.478;2022-10-15T06:08:52;43.60;;;27.83;;
15096;SDS011;7649;52.084;7.478;2022-10-15T06:11:20;42.83;;;27.30;;
15096;SDS011;7649;52.084;7.478;2022-10-15T06:13:48;47.07;;;29.23;;
15096;SDS011;7649;52.084;7.478;2022-10-15T06:16:17;47.17;;;29.00;;
15096;SDS011;7649;52.084;7.478;2022-10-15T06:18:50;52.93;;;30.33;;
15096;SDS011;7649;52.084;7.478;2022-10-15T06:21:18;53.77;;;30.07;;
15096;SDS011;7649;52.084;7.478;2022-10-15T06:23:46;45.93;;;29.03;;
15096;SDS011;7649;52.084;7.478;2022-10-15T06:26:16;45.73;;;29.33;;
15096;SDS011;7649;52.084;7.478;2022-10-15T06:28:44;54.00;;;30.73;;
15096;SDS011;7649;52.084;7.478;2022-10-15T06:31:13;56.93;;;32.00;;
15096;SDS011;7649;52.084;7.478;2022-10-15T06:33:41;57.77;;;31.77;;
15096;SDS011;7649;52.084;7.478;2022-10-15T06:36:09;59.07;;;32.03;;
15096;SDS011;7649;52.084;7.478;2022-10-15T06:38:38;47.67;;;29.97;;
15096;SDS011;7649;52.084;7.478;2022-10-15T06:41:09;78.23;;;35.27;;
15096;SDS011;7649;52.084;7.478;2022-10-15T06:43:38;63.33;;;33.80;;
15096;SDS011;7649;52.084;7.478;2022-10-15T06:46:07;64.70;;;35.23;;
15096;SDS011;7649;52.084;7.478;2022-10-15T06:48:35;67.03;;;35.70;;
15096;SDS011;7649;52.084;7.478;2022-10-15T06:51:03;60.23;;;35.30;;
15096;SDS011;7649;52.084;7.478;2022-10-15T06:53:32;67.23;;;36.03;;
15096;SDS011;7649;52.084;7.478;2022-10-15T06:56:01;63.00;;;35.53;;
15096;SDS011;7649;52.084;7.478;2022-10-15T06:58:29;66.77;;;36.03;;
15096;SDS011;7649;52.084;7.478;2022-10-15T07:01:02;60.77;;;34.60;;
15096;SDS011;7649;52.084;7.478;2022-10-15T07:03:31;66.27;;;36.87;;
15096;SDS011;7649;52.084;7.478;2022-10-15T07:06:00;68.97;;;36.27;;
15096;SDS011;7649;52.084;7.478;2022-10-15T07:08:29;72.10;;;37.70;;
15096;SDS011;7649;52.084;7.478;2022-10-15T07:10:59;88.20;;;42.47;;
15096;SDS011;7649;52.084;7.478;2022-10-15T07:13:28;97.90;;;45.77;;
15096;SDS011;7649;52.084;7.478;2022-10-15T07:15:56;91.50;;;45.63;;
15096;SDS011;7649;52.084;7.478;2022-10-15T07:18:25;99.17;;;47.07;;
15096;SDS011;7649;52.084;7.478;2022-10-15T07:20:55;107.90;;;47.10;;
15096;SDS011;7649;52.084;7.478;2022-10-15T07:23:23;110.80;;;48.70;;
15096;SDS011;7649;52.084;7.478;2022-10-15T07:25:53;107.33;;;47.90;;
15096;SDS011;7649;52.084;7.478;2022-10-15T07:28:21;106.10;;;48.00;;
15096;SDS011;7649;52.084;7.478;2022-10-15T07:30:50;112.20;;;49.23;;
15096;SDS011;7649;52.084;7.478;2022-10-15T07:33:18;116.80;;;51.00;;
15096;SDS011;7649;52.084;7.478;2022-10-15T07:35:47;114.03;;;50.87;;
15096;SDS011;7649;52.084;7.478;2022-10-15T07:38:16;114.40;;;50.50;;
15096;SDS011;7649;52.084;7.478;2022-10-15T07:40:44;111.57;;;50.20;;
15096;SDS011;7649;52.084;7.478;2022-10-15T07:43:12;109.77;;;49.97;;
15096;SDS011;7649;52.084;7.478;2022-10-15T07:45:41;111.90;;;50.03;;
15096;SDS011;7649;52.084;7.478;2022-10-15T07:48:10;110.13;;;52.43;;
15096;SDS011;7649;52.084;7.478;2022-10-15T07:50:38;106.30;;;49.60;;
15096;SDS011;7649;52.084;7.478;2022-10-15T07:53:09;106.73;;;50.93;;
15096;SDS011;7649;52.084;7.478;2022-10-15T07:55:37;101.97;;;50.43;;
15096;SDS011;7649;52.084;7.478;2022-10-15T07:58:05;102.43;;;48.90;;
15096;SDS011;7649;52.084;7.478;2022-10-15T08:00:33;95.90;;;50.27;;
15096;SDS011;7649;52.084;7.478;2022-10-15T08:03:02;102.10;;;49.77;;
15096;SDS011;7649;52.084;7.478;2022-10-15T08:05:30;103.70;;;51.40;;
15096;SDS011;7649;52.084;7.478;2022-10-15T08:07:58;92.40;;;50.47;;
15096;SDS011;7649;52.084;7.478;2022-10-15T08:10:28;92.87;;;51.13;;
15096;SDS011;7649;52.084;7.478;2022-10-15T08:12:56;91.67;;;51.50;;
15096;SDS011;7649;52.084;7.478;2022-10-15T08:15:24;91.33;;;51.57;;
15096;SDS011;7649;52.084;7.478;2022-10-15T08:17:52;86.37;;;51.30;;
15096;SDS011;7649;52.084;7.478;2022-10-15T08:20:21;90.10;;;51.37;;
15096;SDS011;7649;52.084;7.478;2022-10-15T08:22:49;80.80;;;50.00;;
15096;SDS011;7649;52.084;7.478;2022-10-15T08:25:17;77.60;;;50.93;;
15096;SDS011;7649;52.084;7.478;2022-10-15T08:27:47;75.67;;;48.97;;
15096;SDS011;7649;52.084;7.478;2022-10-15T08:30:15;74.37;;;49.37;;
15096;SDS011;7649;52.084;7.478;2022-10-15T08:32:44;72.57;;;48.17;;
15096;SDS011;7649;52.084;7.478;2022-10-15T08:35:12;65.63;;;45.17;;
15096;SDS011;7649;52.084;7.478;2022-10-15T08:37:40;63.93;;;46.57;;
15096;SDS011;7649;52.084;7.478;2022-10-15T08:40:09;62.20;;;45.03;;
15096;SDS011;7649;52.084;7.478;2022-10-15T08:42:39;57.13;;;43.53;;
15096;SDS011;7649;52.084;7.478;2022-10-15T08:45:11;57.17;;;43.87;;
15096;SDS011;7649;52.084;7.478;2022-10-15T08:47:41;59.87;;;44.73;;
15096;SDS011;7649;52.084;7.478;2022-10-15T08:50:16;51.03;;;41.30;;
15096;SDS011;7649;52.084;7.478;2022-10-15T08:52:47;56.17;;;41.67;;
15096;SDS011;7649;52.084;7.478;2022-10-15T08:55:17;48.00;;;38.97;;
15096;SDS011;7649;52.084;7.478;2022-10-15T08:57:48;47.93;;;38.43;;
15096;SDS011;7649;52.084;7.478;2022-10-15T09:00:20;48.63;;;39.33;;
15096;SDS011;7649;52.084;7.478;2022-10-15T09:02:53;43.07;;;35.97;;
15096;SDS011;7649;52.084;7.478;2022-10-15T09:05:26;43.03;;;35.50;;
15096;SDS011;7649;52.084;7.478;2022-10-15T09:07:58;39.57;;;34.63;;
15096;SDS011;7649;52.084;7.478;2022-10-15T09:10:30;36.90;;;32.90;;
15096;SDS011;7649;52.084;7.478;2022-10-15T09:13:03;36.27;;;32.30;;
15096;SDS011;7649;52.084;7.478;2022-10-15T09:15:43;36.07;;;32.23;;
15096;SDS011;7649;52.084;7.478;2022-10-15T09:18:15;32.67;;;29.17;;
15096;SDS011;7649;52.084;7.478;2022-10-15T09:20:45;35.63;;;31.83;;
15096;SDS011;7649;52.084;7.478;2022-10-15T09:23:16;33.33;;;29.80;;
15096;SDS011;7649;52.084;7.478;2022-10-15T09:25:46;33.63;;;30.10;;
15096;SDS011;7649;52.084;7.478;2022-10-15T09:28:17;33.00;;;29.53;;
15096;SDS011;7649;52.084;7.478;2022-10-15T09:30:50;32.63;;;29.33;;
15096;SDS011;7649;52.084;7.478;2022-10-15T09:33:23;33.17;;;29.90;;
15096;SDS011;7649;52.084;7.478;2022-10-15T09:35:54;32.03;;;28.63;;
15096;SDS011;7649;52.084;7.478;2022-10-15T09:38:24;31.87;;;28.53;;
15096;SDS011;7649;52.084;7.478;2022-10-15T09:40:57;30.30;;;27.40;;
15096;SDS011;7649;52.084;7.478;2022-10-15T09:43:29;29.73;;;26.93;;
15096;SDS011;7649;52.084;7.478;2022-10-15T09:46:02;29.50;;;26.67;;
15096;SDS011;7649;52.084;7.478;2022-10-15T09:48:31;28.47;;;25.57;;
15096;SDS011;7649;52.084;7.478;2022-10-15T09:51:02;25.73;;;23.10;;
15096;SDS011;7649;52.084;7.478;2022-10-15T09:53:35;24.47;;;22.00;;
15096;SDS011;7649;52.084;7.478;2022-10-15T09:56:07;24.73;;;22.33;;
15096;SDS011;7649;52.084;7.478;2022-10-15T09:58:38;21.03;;;19.03;;
15096;SDS011;7649;52.084;7.478;2022-10-15T10:01:17;20.70;;;18.60;;
15096;SDS011;7649;52.084;7.478;2022-10-15T10:03:45;18.50;;;16.83;;
15096;SDS011;7649;52.084;7.478;2022-10-15T10:06:17;19.00;;;17.20;;
15096;SDS011;7649;52.084;7.478;2022-10-15T10:08:46;18.80;;;16.90;;
15096;SDS011;7649;52.084;7.478;2022-10-15T10:11:16;17.07;;;15.40;;
15096;SDS011;7649;52.084;7.478;2022-10-15T10:13:48;16.83;;;15.13;;
15096;SDS011;7649;52.084;7.478;2022-10-15T10:16:18;17.97;;;16.17;;
15096;SDS011;7649;52.084;7.478;2022-10-15T10:19:01;18.70;;;16.87;;
15096;SDS011;7649;52.084;7.478;2022-10-15T10:21:30;19.30;;;17.47;;
15096;SDS011;7649;52.084;7.478;2022-10-15T10:23:59;19.57;;;17.67;;
15096;SDS011;7649;52.084;7.478;2022-10-15T10:26:45;19.17;;;17.20;;
15096;SDS011;7649;52.084;7.478;2022-10-15T10:29:15;17.97;;;16.43;;
15096;SDS011;7649;52.084;7.478;2022-10-15T10:32:00;19.13;;;17.33;;
15096;SDS011;7649;52.084;7.478;2022-10-15T10:34:36;18.37;;;16.67;;
15096;SDS011;7649;52.084;7.478;2022-10-15T10:37:04;18.37;;;16.57;;
15096;SDS011;7649;52.084;7.478;2022-10-15T10:39:35;19.00;;;17.30;;
15096;SDS011;7649;52.084;7.478;2022-10-15T10:42:04;19.60;;;17.80;;
15096;SDS011;7649;52.084;7.478;2022-10-15T10:44:33;19.33;;;17.43;;
15096;SDS011;7649;52.084;7.478;2022-10-15T10:47:13;17.90;;;16.30;;
15096;SDS011;7649;52.084;7.478;2022-10-15T10:49:43;16.67;;;14.97;;
15096;SDS011;7649;52.084;7.478;2022-10-15T10:52:18;15.97;;;14.47;;
15096;SDS011;7649;52.084;7.478;2022-10-15T10:54:46;14.97;;;13.57;;
15096;SDS011;7649;52.084;7.478;2022-10-15T10:57:16;13.53;;;12.33;;
15096;SDS011;7649;52.084;7.478;2022-10-15T10:59:49;13.93;;;12.63;;
15096;SDS011;7649;52.084;7.478;2022-10-15T11:02:20;12.60;;;11.50;;
15096;SDS011;7649;52.084;7.478;2022-10-15T11:04:48;11.80;;;10.70;;
15096;SDS011;7649;52.084;7.478;2022-10-15T11:07:17;11.05;;;9.98;;
15096;SDS011;7649;52.084;7.478;2022-10-15T11:09:51;10.18;;;9.27;;
15096;SDS011;7649;52.084;7.478;2022-10-15T11:12:30;9.13;;;8.32;;
15096;SDS011;7649;52.084;7.478;2022-10-15T11:15:02;7.78;;;7.18;;
15096;SDS011;7649;52.084;7.478;2022-10-15T11:17:45;7.93;;;7.30;;
15096;SDS011;7649;52.084;7.478;2022-10-15T11:20:16;7.25;;;6.65;;
15096;SDS011;7649;52.084;7.478;2022-10-15T11:23:05;8.05;;;7.28;;
15096;SDS011;7649;52.084;7.478;2022-10-15T11:25:40;7.78;;;7.18;;
15096;SDS011;7649;52.084;7.478;2022-10-15T11:28:17;6.45;;;5.95;;
15096;SDS011;7649;52.084;7.478;2022-10-15T11:30:48;7.32;;;6.63;;
15096;SDS011;7649;52.084;7.478;2022-10-15T11:33:25;7.28;;;6.68;;
15096;SDS011;7649;52.084;7.478;2022-10-15T11:35:59;6.72;;;6.13;;
15096;SDS011;7649;52.084;7.478;2022-10-15T11:38:33;6.78;;;6.22;;
15096;SDS011;7649;52.084;7.478;2022-10-15T11:41:19;6.28;;;5.78;;
15096;SDS011;7649;52.084;7.478;2022-10-15T11:43:54;6.03;;;5.63;;
15096;SDS011;7649;52.084;7.478;2022-10-15T11:46:26;5.83;;;5.33;;
15096;SDS011;7649;52.084;7.478;2022-10-15T11:49:00;5.47;;;5.07;;
15096;SDS011;7649;52.084;7.478;2022-10-15T11:51:33;4.70;;;3.90;;
15096;SDS011;7649;52.084;7.478;2022-10-15T11:54:07;4.10;;;3.80;;
15096;SDS011;7649;52.084;7.478;2022-10-15T11:56:37;4.00;;;3.80;;
15096;SDS011;7649;52.084;7.478;2022-10-15T11:59:12;4.20;;;3.77;;
15096;SDS011;7649;52.084;7.478;2022-10-15T12:01:43;4.30;;;4.00;;
15096;SDS011;7649;52.084;7.478;2022-10-15T12:04:15;4.10;;;3.80;;
15096;SDS011;7649;52.084;7.478;2022-10-15T12:06:47;3.43;;;3.23;;
15096;SDS011;7649;52.084;7.478;2022-10-15T12:09:18;3.33;;;3.13;;
15096;SDS011;7649;52.084;7.478;2022-10-15T12:11:48;3.80;;;3.50;;
15096;SDS011;7649;52.084;7.478;2022-10-15T12:14:20;3.53;;;3.30;;
15096;SDS011;7649;52.084;7.478;2022-10-15T12:16:53;4.20;;;3.13;;
15096;SDS011;7649;52.084;7.478;2022-10-15T12:19:25;3.50;;;3.20;;
15096;SDS011;7649;52.084;7.478;2022-10-15T12:22:00;3.03;;;2.80;;
15096;SDS011;7649;52.084;7.478;2022-10-15T12:24:53;2.47;;;2.27;;
15096;SDS011;7649;52.084;7.478;2022-10-15T12:27:23;2.50;;;2.40;;
15096;SDS011;7649;52.084;7.478;2022-10-15T12:32:37;3.00;;;2.00;;
15096;SDS011;7649;52.084;7.478;2022-10-15T12:35:17;2.27;;;2.17;;
15096;SDS011;7649;52.084;7.478;2022-10-15T12:37:47;2.13;;;2.03;;
15096;SDS011;7649;52.084;7.478;2022-10-15T12:40:22;2.63;;;2.17;;
15096;SDS011;7649;52.084;7.478;2022-10-15T12:42:52;2.40;;;2.30;;
15096;SDS011;7649;52.084;7.478;2022-10-15T12:45:22;2.40;;;2.30;;
15096;SDS011;7649;52.084;7.478;2022-10-15T12:47:52;4.30;;;2.20;;
15096;SDS011;7649;52.084;7.478;2022-10-15T12:50:23;2.60;;;2.20;;
15096;SDS011;7649;52.084;7.478;2022-10-15T12:53:01;2.47;;;2.30;;
15096;SDS011;7649;52.084;7.478;2022-10-15T12:55:30;2.60;;;2.40;;
15096;SDS011;7649;52.084;7.478;2022-10-15T12:58:00;2.73;;;2.40;;
15096;SDS011;7649;52.084;7.478;2022-10-15T13:00:35;2.10;;;2.00;;
15096;SDS011;7649;52.084;7.478;2022-10-15T13:03:07;2.17;;;1.97;;
15096;SDS011;7649;52.084;7.478;2022-10-15T13:05:38;2.40;;;2.20;;
15096;SDS011;7649;52.084;7.478;2022-10-15T13:08:10;2.10;;;1.90;;
15096;SDS011;7649;52.084;7.478;2022-10-15T13:10:41;1.83;;;1.70;;
15096;SDS011;7649;52.084;7.478;2022-10-15T13:13:14;1.90;;;1.80;;
15096;SDS011;7649;52.084;7.478;2022-10-15T13:15:49;2.33;;;2.13;;
15096;SDS011;7649;52.084;7.478;2022-10-15T13:18:22;2.10;;;2.00;;
15096;SDS011;7649;52.084;7.478;2022-10-15T13:20:52;2.57;;;2.37;;
15096;SDS011;7649;52.084;7.478;2022-10-15T13:23:22;2.53;;;2.33;;
15096;SDS011;7649;52.084;7.478;2022-10-15T13:26:09;2.60;;;2.50;;
15096;SDS011;7649;52.084;7.478;2022-10-15T13:28:38;2.50;;;2.30;;
15096;SDS011;7649;52.084;7.478;2022-10-15T13:31:11;2.10;;;2.00;;
15096;SDS011;7649;52.084;7.478;2022-10-15T13:33:40;2.40;;;2.20;;
15096;SDS011;7649;52.084;7.478;2022-10-15T13:36:15;2.43;;;2.23;;
15096;SDS011;7649;52.084;7.478;2022-10-15T13:38:50;2.40;;;2.20;;
15096;SDS011;7649;52.084;7.478;2022-10-15T13:41:23;2.20;;;2.10;;
15096;SDS011;7649;52.084;7.478;2022-10-15T13:43:52;6.40;;;2.40;;
15096;SDS011;7649;52.084;7.478;2022-10-15T13:46:24;2.20;;;2.10;;
15096;SDS011;7649;52.084;7.478;2022-10-15T13:48:57;2.50;;;2.30;;
15096;SDS011;7649;52.084;7.478;2022-10-15T13:51:31;3.10;;;2.90;;
15096;SDS011;7649;52.084;7.478;2022-10-15T13:54:00;3.00;;;2.20;;
15096;SDS011;7649;52.084;7.478;2022-10-15T13:56:29;2.50;;;2.30;;
15096;SDS011;7649;52.084;7.478;2022-10-15T13:58:58;2.10;;;1.97;;
15096;SDS011;7649;52.084;7.478;2022-10-15T14:01:28;2.67;;;2.47;;
15096;SDS011;7649;52.084;7.478;2022-10-15T14:03:57;3.20;;;3.00;;
15096;SDS011;7649;52.084;7.478;2022-10-15T14:06:27;2.50;;;2.37;;
15096;SDS011;7649;52.084;7.478;2022-10-15T14:08:57;3.17;;;2.97;;
15096;SDS011;7649;52.084;7.478;2022-10-15T14:11:26;2.77;;;2.57;;
15096;SDS011;7649;52.084;7.478;2022-10-15T14:13:56;3.70;;;3.40;;
15096;SDS011;7649;52.084;7.478;2022-10-15T14:16:26;2.30;;;2.20;;
15096;SDS011;7649;52.084;7.478;2022-10-15T14:18:56;3.10;;;2.90;;
15096;SDS011;7649;52.084;7.478;2022-10-15T14:21:25;3.70;;;3.40;;
15096;SDS011;7649;52.084;7.478;2022-10-15T14:24:02;4.20;;;3.83;;
15096;SDS011;7649;52.084;7.478;2022-10-15T14:26:32;4.40;;;3.80;;
15096;SDS011;7649;52.084;7.478;2022-10-15T14:29:04;3.40;;;3.20;;
15096;SDS011;7649;52.084;7.478;2022-10-15T14:31:36;3.83;;;3.37;;
15096;SDS011;7649;52.084;7.478;2022-10-15T14:36:48;2.90;;;2.60;;
15096;SDS011;7649;52.084;7.478;2022-10-15T14:39:25;4.53;;;2.97;;
15096;SDS011;7649;52.084;7.478;2022-10-15T14:41:55;3.07;;;2.70;;
15096;SDS011;7649;52.084;7.478;2022-10-15T14:44:23;2.70;;;2.57;;
15096;SDS011;7649;52.084;7.478;2022-10-15T14:46:52;3.93;;;2.40;;
15096;SDS011;7649;52.084;7.478;2022-10-15T14:49:26;4.13;;;2.90;;
15096;SDS011;7649;52.084;7.478;2022-10-15T14:51:59;2.87;;;2.57;;
15096;SDS011;7649;52.084;7.478;2022-10-15T14:54:37;3.00;;;2.80;;
15096;SDS011;7649;52.084;7.478;2022-10-15T14:57:11;2.97;;;2.77;;
15096;SDS011;7649;52.084;7.478;2022-10-15T14:59:42;3.43;;;2.60;;
15096;SDS011;7649;52.084;7.478;2022-10-15T15:02:12;2.90;;;2.70;;
15096;SDS011;7649;52.084;7.478;2022-10-15T15:04:43;3.37;;;2.87;;
15096;SDS011;7649;52.084;7.478;2022-10-15T15:07:12;3.17;;;2.87;;
15096;SDS011;7649;52.084;7.478;2022-10-15T15:09:42;2.90;;;2.70;;
15096;SDS011;7649;52.084;7.478;2022-10-15T15:12:14;3.17;;;2.97;;
15096;SDS011;7649;52.084;7.478;2022-10-15T15:14:43;5.50;;;5.13;;